createdAt,value
2022-08-22T12:51:55.753Z,28.71
2022-08-22T12:54:51.466Z,27.68
2022-08-22T12:57:33.269Z,27.01
2022-08-22T13:00:16.695Z,26.63
2022-08-22T13:02:53.409Z,26.96
2022-08-22T13:05:28.210Z,27.41
2022-08-22T13:08:04.664Z,26.22
2022-08-22T13:10:50.517Z,25.45
2022-08-22T13:13:37.172Z,25.14
2022-08-22T13:16:08.678Z,24.87
2022-08-22T13:18:53.695Z,24.84
2022-08-22T13:21:25.544Z,25.02
2022-08-22T13:24:10.595Z,25.31
2022-08-22T13:26:51.074Z,27.57
2022-08-22T13:29:26.092Z,27.37
2022-08-22T13:31:58.352Z,27.86
2022-08-22T13:34:43.702Z,26.40
2022-08-22T13:37:24.500Z,25.86
2022-08-22T13:39:54.436Z,27.14
2022-08-22T13:42:29.875Z,27.44
2022-08-22T13:44:59.672Z,27.05
2022-08-22T13:47:31.571Z,28.94
2022-08-22T13:50:19.927Z,28.54
2022-08-22T13:52:58.611Z,28.78
2022-08-22T13:55:35.339Z,30.26
2022-08-22T13:58:22.193Z,29.50
2022-08-22T14:01:13.780Z,30.70
2022-08-22T14:03:56.917Z,32.29
2022-08-22T14:06:41.265Z,31.86
2022-08-22T14:09:41.439Z,32.47
2022-08-22T14:12:14.255Z,32.90
2022-08-22T14:14:46.943Z,30.00
2022-08-22T14:17:18.764Z,30.52
2022-08-22T14:19:59.459Z,29.51
2022-08-22T14:22:34.573Z,29.81
2022-08-22T14:25:17.329Z,30.10
2022-08-22T14:27:49.990Z,27.66
2022-08-22T14:30:30.532Z,28.65
2022-08-22T14:33:16.634Z,30.37
2022-08-22T14:35:52.767Z,32.32
2022-08-22T14:38:31.875Z,31.68
2022-08-22T14:41:09.021Z,31.87
2022-08-22T14:43:57.973Z,31.96
2022-08-22T14:46:42.831Z,31.58
2022-08-22T14:49:20.835Z,31.09
2022-08-22T14:51:58.183Z,30.65
2022-08-22T14:54:29.162Z,28.28
2022-08-22T14:56:56.991Z,27.39
2022-08-22T14:59:50.122Z,28.56
2022-08-22T15:02:30.078Z,28.48
2022-08-22T15:05:05.675Z,28.76
2022-08-22T15:07:34.757Z,27.31
2022-08-22T15:10:06.890Z,24.69
2022-08-22T15:12:47.667Z,24.69
2022-08-22T15:15:52.804Z,24.46
2022-08-22T15:18:20.751Z,24.63
2022-08-22T15:20:52.155Z,25.33
2022-08-22T15:23:21.264Z,24.98
2022-08-22T15:26:00.712Z,25.43
2022-08-22T15:28:28.168Z,24.55
2022-08-22T15:31:16.643Z,25.78
2022-08-22T15:33:45.962Z,26.06
2022-08-22T15:36:16.640Z,24.46
2022-08-22T15:38:52.081Z,26.75
2022-08-22T15:41:36.484Z,28.13
2022-08-22T15:44:21.454Z,29.94
2022-08-22T15:47:02.868Z,31.18
2022-08-22T15:49:32.608Z,31.05
2022-08-22T15:52:00.878Z,30.68
2022-08-22T15:54:46.912Z,31.21
2022-08-22T15:57:40.723Z,32.69
2022-08-22T16:00:55.560Z,32.05
2022-08-22T16:03:22.776Z,31.03
2022-08-22T16:05:55.404Z,32.71
2022-08-22T16:08:28.292Z,34.44
2022-08-22T16:16:29.875Z,30.98
2022-08-22T16:18:56.329Z,29.96
2022-08-22T16:21:22.794Z,30.26
2022-08-22T16:23:56.859Z,31.72
2022-08-22T16:26:30.376Z,31.75
2022-08-22T16:28:59.738Z,33.21
2022-08-22T16:31:32.311Z,35.01
2022-08-22T16:34:23.594Z,35.67
2022-08-22T16:37:08.574Z,36.04
2022-08-22T16:40:06.985Z,34.91
2022-08-22T16:42:39.527Z,34.30
2022-08-22T16:45:13.075Z,35.10
2022-08-22T16:48:05.468Z,35.64
2022-08-22T16:50:37.625Z,36.44
2022-08-22T16:53:45.630Z,36.85
2022-08-22T16:56:27.032Z,39.37
2022-08-22T16:59:38.815Z,39.23
2022-08-22T17:02:23.464Z,40.97
2022-08-22T17:05:08.815Z,41.46
2022-08-22T17:07:38.392Z,42.15
2022-08-22T17:10:22.978Z,43.04
2022-08-22T17:13:01.054Z,44.31
2022-08-22T17:15:49.509Z,44.84
2022-08-22T17:18:35.894Z,44.75
2022-08-22T17:21:26.722Z,45.92
2022-08-22T17:24:33.826Z,46.88
2022-08-22T17:27:03.939Z,46.21
2022-08-22T17:29:49.347Z,46.80
2022-08-22T17:32:22.914Z,47.86
2022-08-22T17:35:14.429Z,47.07
2022-08-22T17:37:54.525Z,47.35
2022-08-22T17:40:45.796Z,46.98
2022-08-22T17:43:17.946Z,48.85
2022-08-22T17:45:44.450Z,49.68
2022-08-22T17:48:31.721Z,50.31
2022-08-22T17:51:33.497Z,50.29
2022-08-22T17:54:15.614Z,49.30
2022-08-22T17:56:46.374Z,49.46
2022-08-22T17:59:21.249Z,50.17
2022-08-22T18:01:47.837Z,49.65
2022-08-22T18:04:23.765Z,49.66
2022-08-22T18:06:56.991Z,50.80
2022-08-22T18:09:31.994Z,51.11
2022-08-22T18:12:05.177Z,52.51
2022-08-22T18:15:08.023Z,52.33
2022-08-22T18:17:47.520Z,52.31
2022-08-22T18:20:24.095Z,53.83
2022-08-22T18:22:55.326Z,53.70
2022-08-22T18:25:22.183Z,55.73
2022-08-22T18:28:00.115Z,56.48
2022-08-22T18:30:31.429Z,55.92
2022-08-22T18:33:22.727Z,56.93
2022-08-22T18:35:53.891Z,57.99
2022-08-22T18:38:39.454Z,58.35
2022-08-22T18:41:11.057Z,59.01
2022-08-22T18:43:48.176Z,59.26
2022-08-22T18:46:41.954Z,100.00
2022-08-22T18:49:23.635Z,100.00
2022-08-22T18:52:25.789Z,100.00
2022-08-22T18:55:15.073Z,100.00
2022-08-22T18:57:54.138Z,100.00
2022-08-22T19:00:23.853Z,100.00
2022-08-22T19:03:26.086Z,100.00
2022-08-22T19:06:08.311Z,100.00
2022-08-22T19:08:49.326Z,100.00
2022-08-22T19:11:57.266Z,100.00
2022-08-22T19:14:47.029Z,100.00
2022-08-22T19:17:33.186Z,100.00
2022-08-22T19:20:27.769Z,100.00
2022-08-22T19:23:40.408Z,100.00
2022-08-22T19:26:25.028Z,100.00
2022-08-22T19:29:06.661Z,100.00
2022-08-22T19:31:35.389Z,100.00
2022-08-22T19:34:28.709Z,100.00
2022-08-22T19:37:30.930Z,100.00
2022-08-22T19:40:10.742Z,100.00
2022-08-22T19:42:39.501Z,100.00
2022-08-22T19:45:18.606Z,100.00
2022-08-22T19:47:52.303Z,100.00
2022-08-22T19:50:18.782Z,100.00
2022-08-22T19:52:54.264Z,100.00
2022-08-22T19:55:36.741Z,100.00
2022-08-22T19:58:32.011Z,100.00
2022-08-22T20:01:09.110Z,100.00
2022-08-22T20:03:48.385Z,100.00
2022-08-22T20:06:42.857Z,100.00
2022-08-22T20:09:12.394Z,100.00
2022-08-22T20:12:00.954Z,100.00
2022-08-22T20:14:30.826Z,100.00
2022-08-22T20:17:06.876Z,100.00
2022-08-22T20:22:39.176Z,100.00
2022-08-22T20:25:41.693Z,100.00
2022-08-22T20:28:08.649Z,100.00
2022-08-22T20:30:41.872Z,100.00
2022-08-22T20:33:12.780Z,100.00
2022-08-22T20:36:27.169Z,100.00
2022-08-22T20:38:56.975Z,100.00
2022-08-22T20:41:31.867Z,100.00
2022-08-22T20:44:38.403Z,100.00
2022-08-22T20:47:13.156Z,100.00
2022-08-22T20:50:10.517Z,100.00
2022-08-22T20:52:42.657Z,100.00
2022-08-22T20:55:24.060Z,100.00
2022-08-22T20:58:00.805Z,100.00
2022-08-22T21:00:33.826Z,100.00
2022-08-22T21:03:11.873Z,100.00
2022-08-22T21:05:43.917Z,100.00
2022-08-22T21:08:18.775Z,100.00
2022-08-22T21:11:15.365Z,100.00
2022-08-22T21:13:42.065Z,100.00
2022-08-22T21:16:13.191Z,100.00
2022-08-22T21:18:42.729Z,100.00
2022-08-22T21:21:24.673Z,100.00
2022-08-22T21:23:59.940Z,100.00
2022-08-22T21:26:30.905Z,100.00
2022-08-22T21:29:06.826Z,100.00
2022-08-22T21:31:36.072Z,100.00
2022-08-22T21:34:02.811Z,100.00
2022-08-22T21:36:31.603Z,100.00
2022-08-22T21:39:04.448Z,100.00
2022-08-22T21:41:43.588Z,100.00
2022-08-22T21:44:29.340Z,100.00
2022-08-22T21:46:56.938Z,100.00
2022-08-22T21:49:29.240Z,100.00
2022-08-22T21:51:56.331Z,100.00
2022-08-22T21:54:26.088Z,100.00
2022-08-22T21:57:14.379Z,100.00
2022-08-22T21:59:51.526Z,100.00
2022-08-22T22:02:45.406Z,100.00
2022-08-22T22:05:16.220Z,100.00
2022-08-22T22:07:45.217Z,100.00
2022-08-22T22:10:15.543Z,100.00
2022-08-22T22:12:43.325Z,100.00
2022-08-22T22:15:13.136Z,100.00
2022-08-22T22:17:39.719Z,100.00
2022-08-22T22:20:06.880Z,100.00
2022-08-22T22:22:33.411Z,100.00
2022-08-22T22:25:04.789Z,100.00
2022-08-22T22:27:31.809Z,100.00
2022-08-22T22:29:58.371Z,100.00
2022-08-22T22:32:24.955Z,100.00
2022-08-22T22:34:51.529Z,100.00
2022-08-22T22:37:18.397Z,100.00
2022-08-22T22:39:45.058Z,100.00
2022-08-22T22:42:11.985Z,100.00
2022-08-22T22:44:38.570Z,100.00
2022-08-22T22:47:05.313Z,100.00
2022-08-22T22:49:32.757Z,100.00
2022-08-22T22:52:00.695Z,100.00
2022-08-22T22:54:27.683Z,100.00
2022-08-22T22:56:56.399Z,100.00
2022-08-22T22:59:25.418Z,100.00
2022-08-22T23:02:21.868Z,100.00
2022-08-22T23:04:52.852Z,100.00
2022-08-22T23:07:20.201Z,100.00
2022-08-22T23:09:46.861Z,100.00
2022-08-22T23:12:14.598Z,100.00
2022-08-22T23:14:41.187Z,100.00
2022-08-22T23:17:08.105Z,100.00
2022-08-22T23:19:34.943Z,100.00
2022-08-22T23:22:01.679Z,100.00
2022-08-22T23:24:31.237Z,100.00
2022-08-22T23:26:58.613Z,100.00
2022-08-22T23:29:25.866Z,100.00
2022-08-22T23:31:54.169Z,100.00
2022-08-22T23:34:24.249Z,100.00
2022-08-22T23:36:54.461Z,100.00
2022-08-22T23:39:22.429Z,100.00
2022-08-22T23:41:49.248Z,100.00
2022-08-22T23:44:17.929Z,100.00
2022-08-22T23:46:44.933Z,100.00
2022-08-22T23:49:11.890Z,100.00
2022-08-22T23:51:39.531Z,100.00
2022-08-22T23:54:06.576Z,100.00
2022-08-22T23:56:35.618Z,100.00
2022-08-22T23:59:05.554Z,100.00
